Time;durP1;ratioP1;P1;durP2;ratioP2;P2;SDS_P1;SDS_P2;PMS_P1;PMS_P2;Temp;Humidity;BMP_temperature;BMP_pressure;BME280_temperature;BME280_humidity;BME280_pressure;Samples;Min_cycle;Max_cycle;Signal;HPM_P1;HPM_P2
2023/06/06 00:01:40;;;;;;;5.05;3.08;;;;;;;;;;5110795;28;20529;-63
2023/06/06 00:04:09;;;;;;;6.57;3.45;;;;;;;;;;5110521;28;20470;-62
2023/06/06 00:06:38;;;;;;;5.72;2.72;;;;;;;;;;5106542;28;20048;-63
2023/06/06 00:09:06;;;;;;;5.82;2.85;;;;;;;;;;5108546;28;20112;-64
2023/06/06 00:11:36;;;;;;;5.40;2.65;;;;;;;;;;5109295;28;20050;-63
2023/06/06 00:14:06;;;;;;;6.03;2.90;;;;;;;;;;5111572;28;20048;-62
2023/06/06 00:16:34;;;;;;;5.40;3.10;;;;;;;;;;5089050;28;20040;-63
2023/06/06 00:19:03;;;;;;;7.20;3.20;;;;;;;;;;5101085;28;20128;-62
2023/06/06 00:21:32;;;;;;;7.70;3.22;;;;;;;;;;5114406;28;20385;-63
2023/06/06 00:24:01;;;;;;;7.38;3.60;;;;;;;;;;5114161;28;20127;-62
2023/06/06 00:26:29;;;;;;;6.57;2.85;;;;;;;;;;5102673;28;20056;-62
2023/06/06 00:28:58;;;;;;;6.22;3.40;;;;;;;;;;5104181;28;20055;-62
2023/06/06 00:31:28;;;;;;;6.88;3.22;;;;;;;;;;5105441;28;20122;-62
2023/06/06 00:33:56;;;;;;;6.88;3.55;;;;;;;;;;5100991;28;20059;-63
2023/06/06 00:36:24;;;;;;;5.85;3.10;;;;;;;;;;5096835;28;20087;-63
2023/06/06 00:38:53;;;;;;;6.22;3.10;;;;;;;;;;5110592;28;20127;-63
2023/06/06 00:41:21;;;;;;;6.22;2.80;;;;;;;;;;5114736;28;20484;-62
2023/06/06 00:43:50;;;;;;;7.07;3.55;;;;;;;;;;5108764;28;20052;-62
2023/06/06 00:46:19;;;;;;;6.57;3.47;;;;;;;;;;5108014;28;20077;-64
2023/06/06 00:48:49;;;;;;;5.78;3.08;;;;;;;;;;5105067;28;20047;-64
2023/06/06 00:51:17;;;;;;;5.30;3.28;;;;;;;;;;5113670;28;20047;-62
2023/06/06 00:53:46;;;;;;;5.85;3.03;;;;;;;;;;5114703;28;20108;-62
2023/06/06 00:56:14;;;;;;;5.22;3.25;;;;;;;;;;5109221;28;20101;-63
2023/06/06 00:58:44;;;;;;;6.32;3.20;;;;;;;;;;5113849;28;20861;-63
2023/06/06 01:01:13;;;;;;;5.60;3.15;;;;;;;;;;5094471;28;20053;-62
2023/06/06 01:03:43;;;;;;;6.88;3.03;;;;;;;;;;5080850;28;20052;-63
2023/06/06 01:06:14;;;;;;;7.32;2.83;;;;;;;;;;5093871;28;20520;-59
2023/06/06 01:08:43;;;;;;;7.63;3.10;;;;;;;;;;5094451;28;20048;-65
2023/06/06 01:11:13;;;;;;;7.65;3.40;;;;;;;;;;5093554;28;20105;-62
2023/06/06 01:13:46;;;;;;;5.32;3.03;;;;;;;;;;5093257;28;20066;-64
2023/06/06 01:16:17;;;;;;;6.47;2.92;;;;;;;;;;5093029;28;20102;-62
2023/06/06 01:18:47;;;;;;;5.95;3.33;;;;;;;;;;5093070;28;20091;-62
2023/06/06 01:21:17;;;;;;;5.85;2.55;;;;;;;;;;5093129;28;20052;-62
2023/06/06 01:23:47;;;;;;;5.03;3.08;;;;;;;;;;5093118;28;20044;-63
2023/06/06 01:26:17;;;;;;;8.50;3.00;;;;;;;;;;5091818;28;20235;-62
2023/06/06 01:28:45;;;;;;;5.80;3.00;;;;;;;;;;5092871;28;20044;-62
2023/06/06 01:31:19;;;;;;;8.10;3.28;;;;;;;;;;5092808;28;20568;-64
2023/06/06 01:33:50;;;;;;;6.22;2.72;;;;;;;;;;5092996;28;20131;-63
2023/06/06 01:36:22;;;;;;;8.13;3.20;;;;;;;;;;5092145;28;20098;-63
2023/06/06 01:38:55;;;;;;;8.10;4.00;;;;;;;;;;5092884;28;20063;-62
2023/06/06 01:41:24;;;;;;;7.30;3.85;;;;;;;;;;5093467;28;20048;-61
2023/06/06 01:43:55;;;;;;;5.30;3.03;;;;;;;;;;5092863;28;20048;-63
2023/06/06 01:46:24;;;;;;;7.05;3.58;;;;;;;;;;5092465;28;20113;-63
2023/06/06 01:48:53;;;;;;;5.65;2.78;;;;;;;;;;5092676;28;20248;-63
2023/06/06 01:51:21;;;;;;;6.80;3.28;;;;;;;;;;5092599;28;20052;-64
2023/06/06 01:53:50;;;;;;;6.07;3.65;;;;;;;;;;5107046;28;20052;-63
2023/06/06 01:56:21;;;;;;;5.28;3.50;;;;;;;;;;5091943;28;20098;-65
2023/06/06 01:58:49;;;;;;;5.03;2.60;;;;;;;;;;5092711;28;20106;-63
2023/06/06 02:01:18;;;;;;;6.03;2.78;;;;;;;;;;5092435;28;20112;-62
2023/06/06 02:03:46;;;;;;;9.32;3.35;;;;;;;;;;5107888;28;20051;-64
2023/06/06 02:06:15;;;;;;;7.60;2.92;;;;;;;;;;5111687;28;20405;-63
2023/06/06 02:08:43;;;;;;;6.85;3.22;;;;;;;;;;5113226;28;20441;-65
2023/06/06 02:11:12;;;;;;;5.97;3.35;;;;;;;;;;5112711;28;20553;-64
2023/06/06 02:13:43;;;;;;;7.63;3.67;;;;;;;;;;5112652;28;20047;-65
2023/06/06 02:16:12;;;;;;;5.82;2.85;;;;;;;;;;5111556;28;20043;-63
2023/06/06 02:18:44;;;;;;;7.00;3.83;;;;;;;;;;5112959;28;20493;-63
2023/06/06 02:21:13;;;;;;;8.70;3.03;;;;;;;;;;5112593;28;20566;-63
2023/06/06 02:23:41;;;;;;;5.75;2.88;;;;;;;;;;5112195;28;20051;-62
2023/06/06 02:26:10;;;;;;;7.32;4.25;;;;;;;;;;5111565;28;20089;-63
2023/06/06 02:28:39;;;;;;;6.07;3.63;;;;;;;;;;5108484;28;20057;-63
2023/06/06 02:31:11;;;;;;;6.40;3.10;;;;;;;;;;5112689;28;20077;-63
2023/06/06 02:33:40;;;;;;;4.65;2.38;;;;;;;;;;5112074;28;20048;-62
2023/06/06 02:36:08;;;;;;;6.05;3.53;;;;;;;;;;5111691;28;20048;-64
2023/06/06 02:38:37;;;;;;;4.72;2.60;;;;;;;;;;5110360;28;20047;-64
2023/06/06 02:41:05;;;;;;;4.65;2.63;;;;;;;;;;5112408;28;20121;-62
2023/06/06 02:43:33;;;;;;;4.53;2.20;;;;;;;;;;5111988;28;20090;-62
2023/06/06 02:46:02;;;;;;;4.43;2.00;;;;;;;;;;5111855;28;20070;-63
2023/06/06 02:48:32;;;;;;;4.05;2.22;;;;;;;;;;5111669;28;20043;-63
2023/06/06 02:51:00;;;;;;;4.63;1.73;;;;;;;;;;5111836;28;20046;-63
2023/06/06 02:53:31;;;;;;;4.43;1.80;;;;;;;;;;5111932;28;20125;-64
2023/06/06 02:55:59;;;;;;;3.53;1.52;;;;;;;;;;5110840;28;20109;-62
2023/06/06 02:58:28;;;;;;;2.47;1.40;;;;;;;;;;5109062;28;20055;-63
2023/06/06 03:00:57;;;;;;;2.55;1.50;;;;;;;;;;5111784;28;20875;-63
2023/06/06 03:03:25;;;;;;;4.18;1.25;;;;;;;;;;5111514;28;20058;-63
2023/06/06 03:05:56;;;;;;;2.42;1.63;;;;;;;;;;5111052;28;20073;-65
2023/06/06 03:08:25;;;;;;;2.70;1.90;;;;;;;;;;5111237;28;20085;-64
2023/06/06 03:10:53;;;;;;;3.10;1.58;;;;;;;;;;5111406;28;20090;-61
2023/06/06 03:13:21;;;;;;;2.92;1.40;;;;;;;;;;5111618;28;20086;-65
2023/06/06 03:15:50;;;;;;;2.72;1.55;;;;;;;;;;5110828;28;20074;-63
2023/06/06 03:18:20;;;;;;;3.50;1.65;;;;;;;;;;5111236;28;20101;-61
2023/06/06 03:20:51;;;;;;;3.80;1.35;;;;;;;;;;5103054;28;20104;-63
2023/06/06 03:23:21;;;;;;;3.25;1.67;;;;;;;;;;5111685;28;20060;-63
2023/06/06 03:25:51;;;;;;;2.30;1.30;;;;;;;;;;5109122;28;20150;-61
2023/06/06 03:28:20;;;;;;;2.90;1.40;;;;;;;;;;5095714;28;20048;-65
2023/06/06 03:30:49;;;;;;;2.08;1.50;;;;;;;;;;5102823;28;20086;-63
2023/06/06 03:33:18;;;;;;;2.25;1.25;;;;;;;;;;5106568;28;20465;-62
2023/06/06 03:35:46;;;;;;;3.05;1.65;;;;;;;;;;5110411;28;20131;-63
2023/06/06 03:38:15;;;;;;;3.45;1.77;;;;;;;;;;5102682;28;20406;-62
2023/06/06 03:40:44;;;;;;;2.28;1.42;;;;;;;;;;5111149;28;20124;-62
2023/06/06 03:43:13;;;;;;;5.47;1.65;;;;;;;;;;5110925;28;20424;-62
2023/06/06 03:45:41;;;;;;;4.00;1.73;;;;;;;;;;5110809;28;20051;-62
2023/06/06 03:48:10;;;;;;;2.85;1.60;;;;;;;;;;5101071;28;20047;-64
2023/06/06 03:50:38;;;;;;;1.85;1.05;;;;;;;;;;5102065;28;20575;-63
2023/06/06 03:53:07;;;;;;;2.30;1.30;;;;;;;;;;5103783;28;20151;-63
2023/06/06 03:55:37;;;;;;;2.03;1.50;;;;;;;;;;5110642;28;20047;-62
2023/06/06 03:58:07;;;;;;;3.97;1.70;;;;;;;;;;5098889;28;20458;-62
2023/06/06 04:00:35;;;;;;;1.67;1.42;;;;;;;;;;5111165;28;20511;-62
2023/06/06 04:03:04;;;;;;;3.28;1.60;;;;;;;;;;5110590;28;20062;-62
2023/06/06 04:05:33;;;;;;;1.42;1.23;;;;;;;;;;5109950;28;20531;-63
2023/06/06 04:08:01;;;;;;;2.58;1.60;;;;;;;;;;5110401;28;20613;-63
2023/06/06 04:10:30;;;;;;;3.45;1.67;;;;;;;;;;5110584;28;20086;-62
2023/06/06 04:12:59;;;;;;;4.43;1.70;;;;;;;;;;5110946;28;20143;-62
2023/06/06 04:15:29;;;;;;;2.28;1.50;;;;;;;;;;5110101;28;20410;-62
2023/06/06 04:17:57;;;;;;;3.08;1.60;;;;;;;;;;5110386;28;20074;-63
2023/06/06 04:20:27;;;;;;;3.60;1.67;;;;;;;;;;5110390;28;20055;-64
2023/06/06 04:22:55;;;;;;;4.03;1.65;;;;;;;;;;5110798;28;20055;-62
2023/06/06 04:25:24;;;;;;;3.13;1.40;;;;;;;;;;5109814;28;20511;-64
2023/06/06 04:27:52;;;;;;;2.70;1.67;;;;;;;;;;5108549;28;20082;-63
2023/06/06 04:30:23;;;;;;;3.13;1.55;;;;;;;;;;5110650;28;20415;-64
2023/06/06 04:32:53;;;;;;;2.67;1.50;;;;;;;;;;5110047;28;20104;-62
2023/06/06 04:35:22;;;;;;;2.88;1.48;;;;;;;;;;5104466;28;20047;-62
2023/06/06 04:37:54;;;;;;;3.08;1.52;;;;;;;;;;5110626;28;20051;-63
2023/06/06 04:40:22;;;;;;;2.53;1.50;;;;;;;;;;5109923;28;20155;-64
2023/06/06 04:42:58;;;;;;;1.88;1.20;;;;;;;;;;5110515;28;20108;-63
2023/06/06 04:45:26;;;;;;;3.40;1.88;;;;;;;;;;5103668;28;20048;-62
2023/06/06 04:47:57;;;;;;;3.17;1.58;;;;;;;;;;5110590;28;20051;-62
2023/06/06 04:50:29;;;;;;;2.78;1.50;;;;;;;;;;5110335;28;20044;-62
2023/06/06 04:52:57;;;;;;;5.28;1.77;;;;;;;;;;5110566;28;20044;-64
2023/06/06 04:55:27;;;;;;;4.68;1.95;;;;;;;;;;5109904;28;20105;-63
2023/06/06 04:57:58;;;;;;;3.47;1.85;;;;;;;;;;5110922;28;20500;-62
2023/06/06 05:00:26;;;;;;;4.40;2.13;;;;;;;;;;5111047;28;20040;-62
2023/06/06 05:02:56;;;;;;;3.88;2.10;;;;;;;;;;5114958;28;20047;-62
2023/06/06 05:05:25;;;;;;;5.97;2.15;;;;;;;;;;5114110;28;20126;-67
2023/06/06 05:07:53;;;;;;;3.75;1.85;;;;;;;;;;5114151;28;20051;-63
2023/06/06 05:10:21;;;;;;;7.63;1.95;;;;;;;;;;5114306;28;20579;-62
2023/06/06 05:12:50;;;;;;;3.85;2.38;;;;;;;;;;5114308;28;20500;-61
2023/06/06 05:15:18;;;;;;;3.90;2.53;;;;;;;;;;5113615;28;20128;-62
2023/06/06 05:17:57;;;;;;;3.15;1.92;;;;;;;;;;5111380;28;20064;-62
2023/06/06 05:20:26;;;;;;;3.08;2.20;;;;;;;;;;5113548;28;20043;-62
2023/06/06 05:22:54;;;;;;;3.50;2.13;;;;;;;;;;5114339;28;20108;-63
2023/06/06 05:25:23;;;;;;;4.32;2.05;;;;;;;;;;5112930;28;20416;-61
2023/06/06 05:27:52;;;;;;;3.50;1.98;;;;;;;;;;5122255;27;20078;-65
2023/06/06 05:30:20;;;;;;;3.65;1.50;;;;;;;;;;5113780;28;20040;-62
2023/06/06 05:32:48;;;;;;;6.28;2.35;;;;;;;;;;5113075;28;20060;-62
2023/06/06 05:35:18;;;;;;;3.25;2.28;;;;;;;;;;5113267;28;20084;-62
2023/06/06 05:37:47;;;;;;;3.53;2.00;;;;;;;;;;5113447;28;20073;-62
2023/06/06 05:40:15;;;;;;;4.72;2.53;;;;;;;;;;5113470;28;20048;-62
2023/06/06 05:42:43;;;;;;;3.83;2.58;;;;;;;;;;5113350;28;20055;-62
2023/06/06 05:45:12;;;;;;;5.68;2.92;;;;;;;;;;5112862;28;20088;-61
2023/06/06 05:47:40;;;;;;;4.82;2.70;;;;;;;;;;5112883;28;20083;-61
2023/06/06 05:50:09;;;;;;;5.25;2.80;;;;;;;;;;5113465;28;20134;-64
2023/06/06 05:52:39;;;;;;;3.00;2.42;;;;;;;;;;5113253;28;20087;-63
2023/06/06 05:55:10;;;;;;;7.07;3.35;;;;;;;;;;5112374;28;20075;-63
2023/06/06 05:57:38;;;;;;;4.95;3.03;;;;;;;;;;5112534;28;20039;-64
2023/06/06 06:00:09;;;;;;;6.75;2.97;;;;;;;;;;5113580;28;20157;-62
2023/06/06 06:02:38;;;;;;;4.63;2.97;;;;;;;;;;5112740;28;20083;-62
2023/06/06 06:05:08;;;;;;;6.13;2.85;;;;;;;;;;5112482;28;20470;-63
2023/06/06 06:07:37;;;;;;;6.22;3.63;;;;;;;;;;5099270;28;20052;-64
2023/06/06 06:10:07;;;;;;;5.20;2.50;;;;;;;;;;5112028;28;20558;-62
2023/06/06 06:12:35;;;;;;;4.65;2.70;;;;;;;;;;5112124;28;20537;-63
2023/06/06 06:15:04;;;;;;;4.05;2.78;;;;;;;;;;5112413;28;20040;-63
2023/06/06 06:17:32;;;;;;;7.18;3.60;;;;;;;;;;5103241;28;20105;-63
2023/06/06 06:20:06;;;;;;;8.30;3.22;;;;;;;;;;5108279;28;20049;-63
2023/06/06 06:22:35;;;;;;;4.53;2.05;;;;;;;;;;5103981;28;20070;-63
2023/06/06 06:25:04;;;;;;;7.30;2.42;;;;;;;;;;5096540;28;20059;-62
2023/06/06 06:27:35;;;;;;;4.97;2.80;;;;;;;;;;5105073;28;20040;-62
2023/06/06 06:30:04;;;;;;;4.85;2.83;;;;;;;;;;5112045;28;20047;-63
2023/06/06 06:32:33;;;;;;;6.10;2.92;;;;;;;;;;5112208;28;20044;-62
2023/06/06 06:35:02;;;;;;;4.32;2.75;;;;;;;;;;5093025;28;20089;-63
2023/06/06 06:37:30;;;;;;;4.53;3.13;;;;;;;;;;5106130;28;20055;-64
2023/06/06 06:39:59;;;;;;;6.03;3.17;;;;;;;;;;5112354;28;20082;-62
2023/06/06 06:42:27;;;;;;;5.25;2.67;;;;;;;;;;5111211;28;20051;-62
2023/06/06 06:44:57;;;;;;;5.75;2.75;;;;;;;;;;5111656;28;20405;-61
2023/06/06 06:47:25;;;;;;;5.85;2.67;;;;;;;;;;5086366;28;20086;-62
2023/06/06 06:49:54;;;;;;;4.90;2.72;;;;;;;;;;5105769;28;20427;-63
2023/06/06 06:52:22;;;;;;;5.82;3.30;;;;;;;;;;5112229;28;20548;-61
2023/06/06 06:54:54;;;;;;;5.82;3.00;;;;;;;;;;5097634;28;20074;-62
2023/06/06 06:57:23;;;;;;;6.18;3.08;;;;;;;;;;5099705;28;20052;-61
2023/06/06 06:59:51;;;;;;;4.47;3.05;;;;;;;;;;5102429;28;20054;-61
2023/06/06 07:02:23;;;;;;;6.75;2.83;;;;;;;;;;5111831;28;20105;-61
2023/06/06 07:04:51;;;;;;;5.43;2.80;;;;;;;;;;5111047;28;20138;-62
2023/06/06 07:07:20;;;;;;;7.30;2.47;;;;;;;;;;5103352;28;20044;-63
2023/06/06 07:09:48;;;;;;;4.93;3.10;;;;;;;;;;5108636;28;20488;-63
2023/06/06 07:12:17;;;;;;;7.00;2.40;;;;;;;;;;5111550;28;20142;-63
2023/06/06 07:14:45;;;;;;;6.93;3.35;;;;;;;;;;5108016;28;20043;-62
2023/06/06 07:17:15;;;;;;;7.40;3.22;;;;;;;;;;5104778;28;20056;-62
2023/06/06 07:19:45;;;;;;;6.97;3.53;;;;;;;;;;5110255;28;20071;-63
2023/06/06 07:22:14;;;;;;;6.22;2.88;;;;;;;;;;5111354;28;20500;-62
2023/06/06 07:24:45;;;;;;;4.80;3.08;;;;;;;;;;5082281;28;20047;-63
2023/06/06 07:27:15;;;;;;;5.93;3.45;;;;;;;;;;5104912;28;20048;-62
2023/06/06 07:29:43;;;;;;;6.20;3.50;;;;;;;;;;5111267;28;20047;-62
2023/06/06 07:32:12;;;;;;;4.95;3.10;;;;;;;;;;5093228;28;20044;-63
2023/06/06 07:34:42;;;;;;;7.80;3.65;;;;;;;;;;5095261;28;20100;-63
2023/06/06 07:37:11;;;;;;;6.68;3.08;;;;;;;;;;5102415;28;20036;-60
2023/06/06 07:39:42;;;;;;;5.63;3.00;;;;;;;;;;5111353;28;20058;-63
2023/06/06 07:42:10;;;;;;;7.90;3.38;;;;;;;;;;5111062;28;20101;-62
2023/06/06 07:44:39;;;;;;;7.70;3.40;;;;;;;;;;5110326;28;20090;-61
2023/06/06 07:47:07;;;;;;;5.40;3.30;;;;;;;;;;5109114;28;20762;-61
2023/06/06 07:49:36;;;;;;;6.00;3.13;;;;;;;;;;5102019;28;20157;-60
2023/06/06 07:52:04;;;;;;;7.80;3.50;;;;;;;;;;5110739;28;20549;-61
2023/06/06 07:54:34;;;;;;;4.75;2.75;;;;;;;;;;5110280;28;20044;-60
2023/06/06 07:57:05;;;;;;;5.70;2.60;;;;;;;;;;5105394;28;20071;-62
2023/06/06 07:59:35;;;;;;;5.60;3.25;;;;;;;;;;5103862;28;20495;-61
2023/06/06 08:02:03;;;;;;;4.88;3.33;;;;;;;;;;5110177;28;20077;-62
2023/06/06 08:04:32;;;;;;;7.00;3.22;;;;;;;;;;5110659;28;20055;-62
2023/06/06 08:07:03;;;;;;;5.05;3.17;;;;;;;;;;5087186;28;20032;-61
2023/06/06 08:09:32;;;;;;;4.45;2.55;;;;;;;;;;5105655;28;20139;-62
2023/06/06 08:12:02;;;;;;;4.95;2.95;;;;;;;;;;5110787;28;20549;-63
2023/06/06 08:14:31;;;;;;;6.47;3.13;;;;;;;;;;5110497;28;20043;-61
2023/06/06 08:17:04;;;;;;;4.40;2.60;;;;;;;;;;5091647;28;20479;-62
2023/06/06 08:19:32;;;;;;;3.58;2.58;;;;;;;;;;5101221;28;20381;-61
2023/06/06 08:22:01;;;;;;;4.72;2.70;;;;;;;;;;5109741;28;20044;-66
2023/06/06 08:24:30;;;;;;;5.05;2.70;;;;;;;;;;5106739;28;20079;-62
2023/06/06 08:26:58;;;;;;;5.22;2.80;;;;;;;;;;5106369;28;20051;-61
2023/06/06 08:29:28;;;;;;;5.95;3.17;;;;;;;;;;5109201;28;20055;-62
2023/06/06 08:31:56;;;;;;;5.32;2.38;;;;;;;;;;5110640;28;20044;-61
2023/06/06 08:34:26;;;;;;;10.68;2.55;;;;;;;;;;5096879;28;20153;-65
2023/06/06 08:36:55;;;;;;;4.03;2.58;;;;;;;;;;5104638;28;20044;-61
2023/06/06 08:39:23;;;;;;;6.32;2.30;;;;;;;;;;5099239;28;20048;-61
2023/06/06 08:41:53;;;;;;;5.38;2.72;;;;;;;;;;5103343;28;20055;-61
2023/06/06 08:44:23;;;;;;;4.53;2.60;;;;;;;;;;5114616;28;20055;-61
2023/06/06 08:46:53;;;;;;;4.28;2.22;;;;;;;;;;5105419;28;20039;-62
2023/06/06 08:49:22;;;;;;;3.70;1.75;;;;;;;;;;5102747;28;20123;-61
2023/06/06 08:51:51;;;;;;;4.30;2.53;;;;;;;;;;5111068;28;20039;-61
2023/06/06 08:54:20;;;;;;;4.25;1.98;;;;;;;;;;5115110;28;20561;-62
2023/06/06 08:56:51;;;;;;;4.32;2.10;;;;;;;;;;5106570;28;20488;-64
2023/06/06 08:59:20;;;;;;;3.92;2.17;;;;;;;;;;5106257;28;20358;-62
2023/06/06 09:01:51;;;;;;;3.85;2.03;;;;;;;;;;5114529;28;20104;-63
2023/06/06 09:04:21;;;;;;;2.50;1.58;;;;;;;;;;5114598;28;20056;-66
2023/06/06 09:06:56;;;;;;;2.72;1.92;;;;;;;;;;5111909;28;20071;-62
2023/06/06 09:09:25;;;;;;;3.30;1.83;;;;;;;;;;5108739;28;20047;-62
2023/06/06 09:11:54;;;;;;;4.53;1.88;;;;;;;;;;5114342;28;20052;-62
2023/06/06 09:14:22;;;;;;;3.78;2.05;;;;;;;;;;5093415;28;20056;-62
2023/06/06 09:16:52;;;;;;;2.80;1.90;;;;;;;;;;5111360;28;20040;-61
2023/06/06 09:19:26;;;;;;;2.90;1.65;;;;;;;;;;5109787;28;20134;-63
2023/06/06 09:21:54;;;;;;;4.38;2.33;;;;;;;;;;5113976;28;20081;-64
2023/06/06 09:24:23;;;;;;;3.92;1.77;;;;;;;;;;5113609;28;20135;-62
2023/06/06 09:26:51;;;;;;;2.78;1.50;;;;;;;;;;5110781;28;20061;-62
2023/06/06 09:29:20;;;;;;;2.05;1.20;;;;;;;;;;5111931;28;20108;-61
2023/06/06 09:31:48;;;;;;;3.95;1.58;;;;;;;;;;5101295;28;20088;-61
2023/06/06 09:34:17;;;;;;;2.85;1.52;;;;;;;;;;5099885;28;20113;-64
2023/06/06 09:36:48;;;;;;;2.60;1.60;;;;;;;;;;5104261;28;20126;-64
2023/06/06 09:39:16;;;;;;;2.33;1.40;;;;;;;;;;5113859;28;20048;-61
2023/06/06 09:41:45;;;;;;;2.67;1.67;;;;;;;;;;5114153;28;20047;-63
2023/06/06 09:44:19;;;;;;;2.67;1.33;;;;;;;;;;5114263;28;20400;-62
2023/06/06 09:46:47;;;;;;;4.00;1.50;;;;;;;;;;5111591;28;20138;-63
2023/06/06 09:49:17;;;;;;;3.30;1.40;;;;;;;;;;5100188;28;20416;-62
2023/06/06 09:51:46;;;;;;;2.28;1.48;;;;;;;;;;5113695;28;20052;-65
2023/06/06 09:54:17;;;;;;;1.92;1.20;;;;;;;;;;5113889;28;20427;-63
2023/06/06 09:56:49;;;;;;;1.98;1.23;;;;;;;;;;5112651;28;20039;-66
2023/06/06 09:59:18;;;;;;;2.65;1.50;;;;;;;;;;5104783;28;20052;-63
2023/06/06 10:01:49;;;;;;;1.88;1.20;;;;;;;;;;5112235;28;20043;-62
2023/06/06 10:04:18;;;;;;;2.45;1.30;;;;;;;;;;5107451;28;20056;-62
2023/06/06 10:06:47;;;;;;;2.47;1.23;;;;;;;;;;5111325;28;20119;-61
2023/06/06 10:09:17;;;;;;;1.92;1.17;;;;;;;;;;5106694;28;20552;-63
2023/06/06 10:11:46;;;;;;;2.30;1.15;;;;;;;;;;5112598;28;20088;-62
2023/06/06 10:14:15;;;;;;;2.38;1.42;;;;;;;;;;5112352;28;20112;-62
2023/06/06 10:16:44;;;;;;;2.58;1.25;;;;;;;;;;5101901;28;20513;-64
2023/06/06 10:19:14;;;;;;;2.40;1.20;;;;;;;;;;5108266;28;20048;-62
2023/06/06 10:21:42;;;;;;;1.75;1.38;;;;;;;;;;5100612;28;20060;-62
2023/06/06 10:24:11;;;;;;;2.67;1.08;;;;;;;;;;5105597;28;20060;-63
2023/06/06 10:26:46;;;;;;;2.58;1.38;;;;;;;;;;5111830;28;20093;-63
2023/06/06 10:29:18;;;;;;;2.88;1.50;;;;;;;;;;5109227;28;20134;-62
2023/06/06 10:31:49;;;;;;;2.10;1.25;;;;;;;;;;5112294;28;20044;-62
2023/06/06 10:34:20;;;;;;;4.82;1.48;;;;;;;;;;5100798;28;20453;-62
2023/06/06 10:36:48;;;;;;;2.72;1.50;;;;;;;;;;5103923;28;20056;-64
2023/06/06 10:39:17;;;;;;;1.65;0.85;;;;;;;;;;5103673;28;20043;-62
2023/06/06 10:41:54;;;;;;;1.63;1.23;;;;;;;;;;5112454;28;20052;-62
2023/06/06 10:44:28;;;;;;;1.92;1.08;;;;;;;;;;5112325;28;20108;-62
2023/06/06 10:47:16;;;;;;;1.70;1.40;;;;;;;;;;5109824;28;20063;-65
2023/06/06 10:50:11;;;;;;;2.55;1.20;;;;;;;;;;5104163;28;20055;-65
2023/06/06 10:52:42;;;;;;;2.63;1.30;;;;;;;;;;5111967;28;20504;-63
2023/06/06 10:55:15;;;;;;;1.85;0.93;;;;;;;;;;5107689;28;20051;-65
2023/06/06 10:57:51;;;;;;;2.67;1.50;;;;;;;;;;5085949;28;20082;-62
2023/06/06 11:00:22;;;;;;;1.88;1.30;;;;;;;;;;5110366;28;20054;-62
2023/06/06 11:02:51;;;;;;;2.17;1.20;;;;;;;;;;5111708;28;20055;-66
2023/06/06 11:05:21;;;;;;;1.88;1.10;;;;;;;;;;5084957;28;20388;-62
2023/06/06 11:07:50;;;;;;;1.95;1.27;;;;;;;;;;5095275;28;20051;-64
2023/06/06 11:10:21;;;;;;;1.75;0.98;;;;;;;;;;5111942;28;20043;-64
2023/06/06 11:12:51;;;;;;;2.33;1.55;;;;;;;;;;5100814;28;20060;-62
2023/06/06 11:15:31;;;;;;;1.40;1.05;;;;;;;;;;5111121;28;20044;-63
2023/06/06 11:18:04;;;;;;;2.28;1.17;;;;;;;;;;5105418;28;20486;-64
2023/06/06 11:20:39;;;;;;;3.90;1.27;;;;;;;;;;5111469;28;20048;-65
2023/06/06 11:23:08;;;;;;;2.42;1.70;;;;;;;;;;5110791;28;20124;-62
2023/06/06 11:25:37;;;;;;;2.92;1.70;;;;;;;;;;5107227;28;20602;-63
2023/06/06 11:28:08;;;;;;;1.75;1.30;;;;;;;;;;5108478;28;20051;-64
2023/06/06 11:30:39;;;;;;;1.70;1.45;;;;;;;;;;5086121;28;20562;-65
2023/06/06 11:33:09;;;;;;;2.58;1.42;;;;;;;;;;5108294;28;20043;-64
2023/06/06 11:35:39;;;;;;;2.35;1.92;;;;;;;;;;5093599;28;20462;-63
2023/06/06 11:38:08;;;;;;;2.33;1.42;;;;;;;;;;5100302;28;20044;-63
2023/06/06 11:40:37;;;;;;;2.03;1.33;;;;;;;;;;5108371;28;20051;-63
2023/06/06 11:43:07;;;;;;;1.52;1.35;;;;;;;;;;5110932;28;20047;-66
2023/06/06 11:45:35;;;;;;;2.15;1.60;;;;;;;;;;5110565;28;20051;-65
2023/06/06 11:48:04;;;;;;;2.13;1.35;;;;;;;;;;5090099;28;20105;-66
2023/06/06 11:50:45;;;;;;;1.88;1.45;;;;;;;;;;5084837;28;20087;-62
2023/06/06 11:53:13;;;;;;;3.83;1.80;;;;;;;;;;5110442;28;20048;-63
2023/06/06 11:55:41;;;;;;;2.03;1.20;;;;;;;;;;5110076;28;20561;-63
2023/06/06 11:58:11;;;;;;;2.22;1.20;;;;;;;;;;5101140;28;20489;-62
2023/06/06 12:00:39;;;;;;;2.75;1.50;;;;;;;;;;5111224;28;20055;-63
2023/06/06 12:03:08;;;;;;;1.75;1.30;;;;;;;;;;5108122;28;20073;-64
2023/06/06 12:05:36;;;;;;;1.77;1.30;;;;;;;;;;5078527;28;20407;-64
2023/06/06 12:08:05;;;;;;;5.03;1.40;;;;;;;;;;5098547;28;20507;-63
2023/06/06 12:10:34;;;;;;;2.45;1.50;;;;;;;;;;5109999;28;20050;-64
2023/06/06 12:13:02;;;;;;;2.45;1.45;;;;;;;;;;5110568;28;20408;-63
2023/06/06 12:15:48;;;;;;;2.60;1.63;;;;;;;;;;5110211;28;20113;-62
2023/06/06 12:18:16;;;;;;;3.22;1.63;;;;;;;;;;5100787;28;20445;-64
2023/06/06 12:20:46;;;;;;;3.72;1.52;;;;;;;;;;5083389;28;20075;-66
2023/06/06 12:23:26;;;;;;;1.77;1.42;;;;;;;;;;5097661;28;20044;-65
2023/06/06 12:25:57;;;;;;;3.75;1.73;;;;;;;;;;5109897;28;20050;-64
2023/06/06 12:28:25;;;;;;;3.03;1.92;;;;;;;;;;5107611;28;20503;-63
2023/06/06 12:30:57;;;;;;;2.17;1.42;;;;;;;;;;5110376;28;20044;-65
2023/06/06 12:33:40;;;;;;;2.03;1.10;;;;;;;;;;5105843;28;20048;-63
2023/06/06 12:36:19;;;;;;;2.38;1.60;;;;;;;;;;5084443;28;20051;-63
2023/06/06 12:38:55;;;;;;;2.92;1.73;;;;;;;;;;5085049;28;20044;-64
2023/06/06 12:41:23;;;;;;;3.13;1.60;;;;;;;;;;5110452;28;20092;-64
2023/06/06 12:43:51;;;;;;;2.65;1.38;;;;;;;;;;5110134;28;20047;-63
2023/06/06 12:46:21;;;;;;;2.75;1.42;;;;;;;;;;5109828;28;20082;-63
2023/06/06 12:48:50;;;;;;;3.28;1.58;;;;;;;;;;5091936;28;20052;-64
2023/06/06 12:51:18;;;;;;;3.22;1.60;;;;;;;;;;5104517;28;20076;-63
2023/06/06 12:53:50;;;;;;;4.18;1.58;;;;;;;;;;5109574;28;20081;-63
2023/06/06 12:56:18;;;;;;;3.03;1.60;;;;;;;;;;5097837;28;20503;-63
2023/06/06 12:58:46;;;;;;;2.45;1.80;;;;;;;;;;5091279;28;20112;-65
2023/06/06 13:01:15;;;;;;;2.92;1.60;;;;;;;;;;5110431;28;20071;-64
2023/06/06 13:03:45;;;;;;;1.83;1.20;;;;;;;;;;5110506;28;20062;-63
2023/06/06 13:06:14;;;;;;;5.80;1.65;;;;;;;;;;5109159;28;20142;-64
2023/06/06 13:08:43;;;;;;;2.47;1.60;;;;;;;;;;5104980;28;20117;-63
2023/06/06 13:11:12;;;;;;;2.88;1.80;;;;;;;;;;5107015;28;20051;-62
2023/06/06 13:13:41;;;;;;;2.13;1.45;;;;;;;;;;5088629;28;20104;-64
2023/06/06 13:16:10;;;;;;;4.28;1.65;;;;;;;;;;5109246;28;20450;-64
2023/06/06 13:18:39;;;;;;;2.25;1.63;;;;;;;;;;5102730;28;20046;-64
2023/06/06 13:21:09;;;;;;;2.72;1.60;;;;;;;;;;5110137;28;20047;-62
2023/06/06 13:23:38;;;;;;;4.65;1.65;;;;;;;;;;5113991;28;20043;-64
2023/06/06 13:26:06;;;;;;;3.40;1.60;;;;;;;;;;5113034;28;20101;-64
2023/06/06 13:28:35;;;;;;;3.85;1.65;;;;;;;;;;5102779;28;20459;-64
2023/06/06 13:31:03;;;;;;;2.63;1.75;;;;;;;;;;5110850;28;20047;-64
2023/06/06 13:33:32;;;;;;;2.58;1.55;;;;;;;;;;5107885;28;20094;-63
2023/06/06 13:36:00;;;;;;;2.08;1.30;;;;;;;;;;5098738;28;20355;-62
2023/06/06 13:38:30;;;;;;;2.35;1.50;;;;;;;;;;5101899;28;20047;-64
2023/06/06 13:40:58;;;;;;;3.42;1.45;;;;;;;;;;5087138;28;20087;-64
2023/06/06 13:43:27;;;;;;;2.50;1.63;;;;;;;;;;5113261;28;20047;-65
2023/06/06 13:45:56;;;;;;;3.83;1.88;;;;;;;;;;5098204;28;20048;-64
2023/06/06 13:48:24;;;;;;;2.42;1.63;;;;;;;;;;5093657;28;20414;-64
2023/06/06 13:50:52;;;;;;;1.95;1.50;;;;;;;;;;5114342;28;20048;-64
2023/06/06 13:53:22;;;;;;;2.53;1.10;;;;;;;;;;5113896;28;20044;-64
2023/06/06 13:55:53;;;;;;;5.35;1.80;;;;;;;;;;5113142;28;20043;-62
2023/06/06 13:58:23;;;;;;;3.58;1.42;;;;;;;;;;5106690;28;20388;-69
2023/06/06 14:00:52;;;;;;;2.30;1.52;;;;;;;;;;5113854;28;20135;-67
2023/06/06 14:03:21;;;;;;;2.55;1.67;;;;;;;;;;5101553;28;20052;-65
2023/06/06 14:05:50;;;;;;;2.20;1.40;;;;;;;;;;5092566;28;20056;-67
2023/06/06 14:08:19;;;;;;;2.00;1.35;;;;;;;;;;5092132;28;20055;-64
2023/06/06 14:10:47;;;;;;;2.42;1.80;;;;;;;;;;5092228;28;20051;-66
2023/06/06 14:13:17;;;;;;;1.50;1.20;;;;;;;;;;5090906;28;20489;-65
2023/06/06 14:15:45;;;;;;;2.45;1.50;;;;;;;;;;5085047;28;20132;-66
2023/06/06 14:18:14;;;;;;;3.58;1.80;;;;;;;;;;5092168;28;20129;-66
2023/06/06 14:20:59;;;;;;;3.13;1.63;;;;;;;;;;5091845;28;20047;-65
2023/06/06 14:23:27;;;;;;;;;;;;;;;;;;5092654;28;20056;-65
2023/06/06 14:25:56;;;;;;;2.72;1.40;;;;;;;;;;5091796;28;19961;-63
2023/06/06 14:28:25;;;;;;;1.98;1.30;;;;;;;;;;5091975;28;20052;-67
2023/06/06 14:30:54;;;;;;;2.47;1.48;;;;;;;;;;5091738;28;20048;-66
2023/06/06 14:33:23;;;;;;;2.42;1.48;;;;;;;;;;5091845;28;20048;-66
2023/06/06 14:35:54;;;;;;;1.88;1.25;;;;;;;;;;5091568;28;20087;-64
2023/06/06 14:38:24;;;;;;;2.08;1.45;;;;;;;;;;5088952;28;20095;-63
2023/06/06 14:40:52;;;;;;;1.77;1.27;;;;;;;;;;5091608;28;20113;-64
2023/06/06 14:43:21;;;;;;;1.88;1.17;;;;;;;;;;5091697;28;20047;-64
2023/06/06 14:45:50;;;;;;;2.35;1.25;;;;;;;;;;5090886;28;20492;-63
2023/06/06 14:48:19;;;;;;;2.80;1.63;;;;;;;;;;5084087;28;20044;-63
2023/06/06 14:50:47;;;;;;;2.53;1.42;;;;;;;;;;5091498;28;20135;-64
2023/06/06 14:53:16;;;;;;;2.20;1.38;;;;;;;;;;5091071;28;20040;-64
2023/06/06 14:55:46;;;;;;;1.98;1.13;;;;;;;;;;5087073;28;20131;-63
2023/06/06 14:58:30;;;;;;;2.63;1.70;;;;;;;;;;5088917;28;20447;-62